PABE/BET METAR and TAF weather

Enter ICAO airport designator
Station Type Date Time Source
PABE METAR 2019/10/23 12:53 UTC NOAA

PABE 231253Z 02025G37KT 9SM -SN OVC065 01/M01 A2903 RMK AO2 PK WND 02040/1207 SNB1159E06B47 SLP830 P0000 T00111006


Station Type Date Time Source
PABE Decoded METAR 2019/10/23 12:53 UTC NOAA

BETHEL AIRPORT, AK, United States (PABE) 60-47N 161-50W 46M
Oct 23, 2019 - 08:53 AM EDT / 2019.10.23 1253 UTC
Wind: from the NNE (020 degrees) at 29 MPH (25 KT) gusting to 43 MPH (37 KT):0
Visibility: 9 mile(s):0
Sky conditions: overcast
Weather: light snow
Precipitation last hour: A trace
Temperature: 34.0 F (1.1 C)
Windchill: 21 F (-6 C):1
Dew Point: 30.9 F (-0.6 C)
Relative Humidity: 88%
Pressure (altimeter): 29.03 in. Hg (983 hPa)
ob: PABE 231253Z 02025G37KT 9SM -SN OVC065 01/M01 A2903 RMK AO2 PK WND 02040/1207 SNB1159E06B47 SLP830 P0000 T00111006
cycle: 13

Station Type Date Time Source
PABE TAF 2019/10/23 12:30 UTC NOAA

TAF PABE 231126Z 2312/2412 02030G40KT P6SM -RASN OVC040
TEMPO 2312/2316 5SM -SN OVC025
FM231900 01027G35KT P6SM -SHRA BKN015 OVC025
FM240300 34017G25KT P6SM -SHRA BKN030 OVC050

Example: see airport list